createdAt,value
2018-03-23T00:01:00.737Z,97158.91
2018-03-23T00:03:27.025Z,97156.03
2018-03-23T00:05:53.524Z,97147.98
2018-03-23T00:08:19.824Z,97149.95
2018-03-23T00:10:46.257Z,97150.98
2018-03-23T00:13:12.528Z,97148.53
2018-03-23T00:15:38.906Z,97149.17
2018-03-23T00:18:05.206Z,97148.81
2018-03-23T00:20:31.730Z,97149.74
2018-03-23T00:22:58.240Z,97141.59
2018-03-23T00:25:24.580Z,97141.83
2018-03-23T00:27:51.224Z,97143.98
2018-03-23T00:30:17.542Z,97137.80
2018-03-23T00:32:43.937Z,97134.45
2018-03-23T00:35:10.214Z,97131.95
2018-03-23T00:37:36.566Z,97137.31
2018-03-23T00:40:03.252Z,97135.70
2018-03-23T00:42:29.562Z,97131.64
2018-03-23T00:44:56.340Z,97125.00
2018-03-23T00:47:22.684Z,97125.73
2018-03-23T00:49:49.032Z,97124.02
2018-03-23T00:52:15.378Z,97121.46
2018-03-23T00:54:41.650Z,97122.63
2018-03-23T00:57:07.948Z,97125.37
2018-03-23T00:59:34.310Z,97119.50
2018-03-23T01:02:00.550Z,97113.83
2018-03-23T01:04:26.872Z,97118.04
2018-03-23T01:06:54.279Z,97121.16
2018-03-23T01:09:20.545Z,97115.35
2018-03-23T01:11:46.788Z,97117.27
2018-03-23T01:14:13.072Z,97124.00
2018-03-23T01:16:39.324Z,97123.43
2018-03-23T01:19:05.574Z,97118.67
2018-03-23T01:21:31.885Z,97112.17
2018-03-23T01:23:58.360Z,97111.08
2018-03-23T01:26:24.630Z,97107.44
2018-03-23T01:28:50.928Z,97104.75
2018-03-23T01:31:17.178Z,97101.00
2018-03-23T01:33:43.410Z,97103.74
2018-03-23T01:36:09.697Z,97106.28
2018-03-23T01:38:35.941Z,97103.27
2018-03-23T01:41:02.175Z,97104.13
2018-03-23T01:43:28.478Z,97093.88
2018-03-23T01:45:54.744Z,97097.73
2018-03-23T01:48:21.054Z,97093.22
2018-03-23T01:50:47.288Z,97089.80
2018-03-23T01:53:25.728Z,97087.58
2018-03-23T01:55:52.077Z,97082.44
2018-03-23T01:58:18.341Z,97085.69
2018-03-23T02:00:44.612Z,97091.16
2018-03-23T02:03:10.881Z,97081.91
2018-03-23T02:05:37.169Z,97089.49
2018-03-23T02:08:03.483Z,97089.91
2018-03-23T02:10:29.761Z,97089.11
2018-03-23T02:12:56.008Z,97090.48
2018-03-23T02:15:22.251Z,97080.25
2018-03-23T02:17:48.555Z,97084.45
2018-03-23T02:20:14.839Z,97076.97
2018-03-23T02:22:41.096Z,97078.86
2018-03-23T02:25:07.373Z,97074.94
2018-03-23T02:27:33.623Z,97071.40
2018-03-23T02:29:59.896Z,97075.08
2018-03-23T02:32:26.164Z,97071.45
2018-03-23T02:34:52.412Z,97069.44
2018-03-23T02:37:18.661Z,97063.95
2018-03-23T02:39:44.931Z,97059.31
2018-03-23T02:42:11.165Z,97064.76
2018-03-23T02:44:37.397Z,97063.94
2018-03-23T02:47:03.682Z,97061.34
2018-03-23T02:49:29.911Z,97053.41
2018-03-23T02:51:56.160Z,97057.55
2018-03-23T02:54:22.427Z,97050.50
2018-03-23T02:56:48.666Z,97054.38
2018-03-23T02:59:15.021Z,97052.05
2018-03-23T03:01:41.312Z,97054.16
2018-03-23T03:04:07.591Z,97049.92
2018-03-23T03:06:33.828Z,97054.86
2018-03-23T03:09:00.115Z,97044.05
2018-03-23T03:11:26.339Z,97045.09
2018-03-23T03:13:52.576Z,97043.55
2018-03-23T03:16:18.838Z,97036.74
2018-03-23T03:18:45.068Z,97040.44
2018-03-23T03:21:11.327Z,97036.33
2018-03-23T03:23:37.692Z,97034.17
2018-03-23T03:26:03.952Z,97032.80
2018-03-23T03:28:30.204Z,97036.52
2018-03-23T03:30:56.478Z,97041.67
2018-03-23T03:33:22.735Z,97039.91
2018-03-23T03:35:49.000Z,97041.28
2018-03-23T03:38:15.248Z,97038.19
2018-03-23T03:40:41.496Z,97030.83
2018-03-23T03:43:07.724Z,97042.98
2018-03-23T03:45:34.024Z,97039.13
2018-03-23T03:48:00.260Z,97033.02
2018-03-23T03:50:26.507Z,97033.59
2018-03-23T03:52:52.784Z,97035.89
2018-03-23T03:55:19.027Z,97025.66
2018-03-23T03:57:45.261Z,97024.20
2018-03-23T04:00:11.524Z,97024.47
2018-03-23T04:02:37.769Z,97018.40
2018-03-23T04:05:04.139Z,97020.87
2018-03-23T04:07:30.411Z,97018.48
2018-03-23T04:09:56.652Z,97018.40
2018-03-23T04:12:22.887Z,97014.81
2018-03-23T04:14:49.151Z,97011.86
2018-03-23T04:17:15.389Z,97013.88
2018-03-23T04:19:41.661Z,97012.52
2018-03-23T04:22:07.927Z,97010.43
2018-03-23T04:24:34.167Z,97010.18
2018-03-23T04:27:00.396Z,97011.80
2018-03-23T04:29:27.500Z,97007.91
2018-03-23T04:31:53.740Z,96995.78
2018-03-23T04:34:19.987Z,97000.58
2018-03-23T04:36:46.243Z,96994.28
2018-03-23T04:39:12.491Z,96990.77
2018-03-23T04:41:38.712Z,96982.45
2018-03-23T04:44:04.967Z,96981.84
2018-03-23T04:46:31.204Z,96975.58
2018-03-23T04:48:57.437Z,96981.77
2018-03-23T04:51:23.703Z,96986.07
2018-03-23T04:53:49.947Z,96987.03
2018-03-23T04:56:16.200Z,96989.19
2018-03-23T04:58:42.564Z,96976.38
2018-03-23T05:01:08.816Z,96978.92
2018-03-23T05:03:35.055Z,96977.64
2018-03-23T05:06:01.325Z,96973.91
2018-03-23T05:08:27.557Z,96969.42
2018-03-23T05:10:53.796Z,96972.34
2018-03-23T05:13:20.150Z,96971.20
2018-03-23T05:15:46.360Z,96972.69
2018-03-23T05:18:12.611Z,96972.48
2018-03-23T05:20:38.913Z,96969.41
2018-03-23T05:23:05.140Z,96972.13
2018-03-23T05:25:31.405Z,96980.52
2018-03-23T05:27:57.685Z,96972.80
2018-03-23T05:30:23.945Z,96974.94
2018-03-23T05:32:50.184Z,96977.53
2018-03-23T05:35:16.439Z,96972.45
2018-03-23T05:37:42.668Z,96976.30
2018-03-23T05:40:08.912Z,96977.83
2018-03-23T05:42:35.176Z,96981.34
2018-03-23T05:45:01.401Z,96980.73
2018-03-23T05:47:27.725Z,96981.78
2018-03-23T05:49:53.992Z,96980.73
2018-03-23T05:52:20.224Z,96979.55
2018-03-23T05:54:46.444Z,96979.65
2018-03-23T05:57:12.721Z,96979.84
2018-03-23T05:59:38.956Z,96978.44
2018-03-23T06:02:05.211Z,96980.73
2018-03-23T06:04:31.460Z,96975.94
2018-03-23T06:06:57.697Z,96980.33
2018-03-23T06:09:23.914Z,96976.29
2018-03-23T06:11:50.176Z,96974.16
2018-03-23T06:14:16.420Z,96978.57
2018-03-23T06:16:42.695Z,96974.78
2018-03-23T06:19:08.975Z,96973.71
2018-03-23T06:21:35.212Z,96975.09
2018-03-23T06:24:01.436Z,96978.27
2018-03-23T06:26:27.723Z,96981.13
2018-03-23T06:28:53.968Z,96981.03
2018-03-23T06:31:20.244Z,96981.03
2018-03-23T06:33:46.520Z,96987.45
2018-03-23T06:36:12.749Z,96984.13
2018-03-23T06:38:38.987Z,96987.12
2018-03-23T06:41:05.267Z,96985.77
2018-03-23T06:43:31.497Z,96983.91
2018-03-23T06:45:57.723Z,96985.78
2018-03-23T06:48:23.991Z,96988.45
2018-03-23T06:50:50.296Z,96989.28
2018-03-23T06:53:16.562Z,96994.23
2018-03-23T06:55:42.824Z,96991.05
2018-03-23T06:58:09.048Z,96983.53
2018-03-23T07:00:35.284Z,96989.56
2018-03-23T07:03:01.540Z,96990.66
2018-03-23T07:05:27.788Z,96988.45
2018-03-23T07:07:54.081Z,96990.08
2018-03-23T07:10:20.356Z,96995.92
2018-03-23T07:12:46.629Z,96987.38
2018-03-23T07:15:12.868Z,96997.03
2018-03-23T07:17:39.162Z,96993.19
2018-03-23T07:20:05.419Z,96996.63
2018-03-23T07:22:31.659Z,96992.38
2018-03-23T07:24:57.970Z,96988.20
2018-03-23T07:27:24.261Z,96985.47
2018-03-23T07:29:50.540Z,96995.11
2018-03-23T07:32:16.797Z,96991.23
2018-03-23T07:34:43.043Z,96998.56
2018-03-23T07:37:09.276Z,96995.66
2018-03-23T07:39:35.582Z,97001.30
2018-03-23T07:42:01.840Z,96999.77
2018-03-23T07:44:28.068Z,96999.13
2018-03-23T07:46:54.319Z,96996.64
2018-03-23T07:49:20.581Z,96998.23
2018-03-23T07:51:46.834Z,97002.30
2018-03-23T07:54:13.161Z,97000.86
2018-03-23T07:56:39.393Z,97004.75
2018-03-23T07:59:05.634Z,97002.67
2018-03-23T08:01:31.945Z,96998.67
2018-03-23T08:03:58.197Z,96998.14
2018-03-23T08:06:24.433Z,96999.67
2018-03-23T08:08:50.695Z,97000.66
2018-03-23T08:11:16.939Z,96997.48
2018-03-23T08:13:43.204Z,96999.55
2018-03-23T08:16:09.617Z,96995.81
2018-03-23T08:18:35.870Z,96999.61
2018-03-23T08:21:02.083Z,97001.64
2018-03-23T08:23:28.353Z,97001.52
2018-03-23T08:25:54.596Z,97004.17
2018-03-23T08:28:20.899Z,97004.05
2018-03-23T08:30:47.180Z,97001.20
2018-03-23T08:33:13.403Z,97010.41
2018-03-23T08:35:39.639Z,97016.60
2018-03-23T08:38:05.939Z,97012.78
2018-03-23T08:40:32.172Z,97007.45
2018-03-23T08:42:58.400Z,97007.88
2018-03-23T08:45:24.659Z,97005.47
2018-03-23T08:47:50.897Z,96997.74
2018-03-23T08:50:17.148Z,97005.83
2018-03-23T08:52:43.416Z,97000.61
2018-03-23T08:55:09.706Z,96999.52
2018-03-23T08:57:35.941Z,97000.52
2018-03-23T09:00:02.252Z,97000.62
2018-03-23T09:02:28.492Z,96995.84
2018-03-23T09:04:54.811Z,96991.06
2018-03-23T09:07:21.073Z,96985.70
2018-03-23T09:09:47.336Z,96984.88
2018-03-23T09:12:13.596Z,96979.45
2018-03-23T09:14:39.863Z,96974.05
2018-03-23T09:17:06.111Z,96973.01
2018-03-23T09:19:32.369Z,96975.02
2018-03-23T09:21:58.632Z,96977.82
2018-03-23T09:24:24.876Z,96971.88
2018-03-23T09:26:51.165Z,96968.71
2018-03-23T09:29:17.428Z,96966.44
2018-03-23T09:31:43.648Z,96971.09
2018-03-23T09:34:09.875Z,96974.89
2018-03-23T09:36:36.139Z,96976.65
2018-03-23T09:39:02.452Z,96981.22
2018-03-23T09:41:28.681Z,96969.07
2018-03-23T09:43:54.948Z,96980.97
2018-03-23T09:46:22.209Z,96980.19
2018-03-23T09:48:48.549Z,96978.20
2018-03-23T09:51:14.824Z,96978.27
2018-03-23T09:53:41.064Z,96979.58
2018-03-23T09:56:07.292Z,96981.61
2018-03-23T09:58:33.596Z,96982.14
2018-03-23T10:00:59.836Z,96977.80
2018-03-23T10:03:26.110Z,96977.03
2018-03-23T10:05:52.368Z,96980.23
2018-03-23T10:08:18.633Z,96977.48
2018-03-23T10:10:44.900Z,96976.36
2018-03-23T10:13:11.228Z,96970.40
2018-03-23T10:15:37.455Z,96968.93
2018-03-23T10:18:03.753Z,96960.98
2018-03-23T10:20:30.108Z,96958.73
2018-03-23T10:23:15.912Z,96953.38
2018-03-23T10:25:42.144Z,96957.54
2018-03-23T10:28:08.787Z,96948.75
2018-03-23T10:30:35.147Z,96944.00
2018-03-23T10:33:01.368Z,96937.78
2018-03-23T10:35:27.705Z,96937.20
2018-03-23T10:37:54.261Z,96940.64
2018-03-23T10:40:20.491Z,96943.73
2018-03-23T10:42:46.840Z,96946.56
2018-03-23T10:45:13.123Z,96938.69
2018-03-23T10:47:39.611Z,96946.77
2018-03-23T10:50:05.918Z,96944.26
2018-03-23T10:52:32.248Z,96936.41
2018-03-23T10:54:58.464Z,96935.58
2018-03-23T10:57:24.886Z,96936.05
2018-03-23T10:59:51.523Z,96924.20
2018-03-23T11:05:17.347Z,96919.33
2018-03-23T11:07:43.743Z,96918.88
2018-03-23T11:10:09.987Z,96918.95
2018-03-23T11:12:36.483Z,96911.95
2018-03-23T11:15:02.843Z,96910.55
2018-03-23T11:17:29.136Z,96912.51
2018-03-23T11:19:55.380Z,96910.06
2018-03-23T11:22:21.621Z,96911.84
2018-03-23T11:24:47.854Z,96916.20
2018-03-23T11:27:14.204Z,96912.78
2018-03-23T11:29:40.431Z,96919.11
2018-03-23T11:32:06.743Z,96916.66
2018-03-23T11:34:33.004Z,96916.16
2018-03-23T11:36:59.447Z,96912.14
2018-03-23T11:39:25.674Z,96917.47
2018-03-23T11:41:52.041Z,96919.27
2018-03-23T11:44:18.273Z,96920.67
2018-03-23T11:46:44.565Z,96916.72
2018-03-23T11:49:11.105Z,96915.95
2018-03-23T11:51:37.459Z,96912.16
2018-03-23T11:54:03.709Z,96914.11
2018-03-23T11:56:30.021Z,96912.28
2018-03-23T11:58:56.305Z,96903.94
2018-03-23T12:01:22.561Z,96910.70
2018-03-23T12:03:49.033Z,96904.38
2018-03-23T12:06:15.367Z,96907.59
2018-03-23T12:08:41.661Z,96903.69
2018-03-23T12:11:07.924Z,96898.30
2018-03-23T12:13:34.164Z,96896.96
2018-03-23T12:16:00.407Z,96893.30
2018-03-23T12:18:26.658Z,96887.00
2018-03-23T12:20:52.956Z,96887.44
2018-03-23T12:23:19.179Z,96879.39
2018-03-23T12:25:45.471Z,96876.41
2018-03-23T12:28:11.849Z,96876.47
2018-03-23T12:30:38.107Z,96870.64
2018-03-23T12:33:04.741Z,96873.98
2018-03-23T12:35:31.051Z,96873.39
2018-03-23T12:37:57.306Z,96867.08
2018-03-23T12:40:23.587Z,96867.63
2018-03-23T12:42:49.888Z,96863.05
2018-03-23T12:45:16.172Z,96860.20
2018-03-23T12:47:42.518Z,96869.19
2018-03-23T12:50:08.843Z,96864.14
2018-03-23T12:52:35.143Z,96854.42
2018-03-23T12:55:01.443Z,96854.91
2018-03-23T12:57:28.732Z,96848.99
2018-03-23T12:59:55.107Z,96849.50
2018-03-23T13:02:21.578Z,96840.07
2018-03-23T13:04:47.856Z,96843.80
2018-03-23T13:07:14.274Z,96834.14
2018-03-23T13:09:40.549Z,96839.45
2018-03-23T13:12:06.803Z,96833.01
2018-03-23T13:14:33.100Z,96831.32
2018-03-23T13:16:59.348Z,96833.34
2018-03-23T13:19:25.584Z,96831.92
2018-03-23T13:21:51.914Z,96827.61
2018-03-23T13:24:18.188Z,96824.00
2018-03-23T13:26:44.485Z,96818.95
2018-03-23T13:29:10.753Z,96822.47
2018-03-23T13:31:37.031Z,96814.67
2018-03-23T13:34:03.301Z,96813.81
2018-03-23T13:36:29.612Z,96809.17
2018-03-23T13:38:55.968Z,96808.32
2018-03-23T13:41:22.300Z,96808.88
2018-03-23T13:43:48.537Z,96806.13
2018-03-23T13:46:15.034Z,96790.99
2018-03-23T13:48:41.280Z,96794.66
2018-03-23T13:51:07.767Z,96791.04
2018-03-23T13:53:34.243Z,96797.20
2018-03-23T13:56:00.761Z,96792.14
2018-03-23T13:58:32.922Z,96784.86
2018-03-23T14:01:01.591Z,96779.61
2018-03-23T14:03:27.966Z,96787.44
2018-03-23T14:05:54.705Z,96785.39
2018-03-23T14:08:21.213Z,96782.83
2018-03-23T14:10:47.476Z,96774.77
2018-03-23T14:13:13.844Z,96771.09
2018-03-23T14:15:40.476Z,96767.66
2018-03-23T14:18:07.157Z,96760.64
2018-03-23T14:20:33.696Z,96755.92
2018-03-23T14:23:01.048Z,96757.81
2018-03-23T14:25:27.394Z,96755.58
2018-03-23T14:27:53.687Z,96762.79
2018-03-23T14:30:20.231Z,96759.39
2018-03-23T14:32:46.508Z,96757.41
2018-03-23T14:35:12.888Z,96759.11
2018-03-23T14:37:39.154Z,96752.11
2018-03-23T14:40:05.490Z,96752.84
2018-03-23T14:42:31.756Z,96749.59
2018-03-23T14:44:58.080Z,96758.16
2018-03-23T14:47:24.485Z,96747.03
2018-03-23T14:49:50.904Z,96745.19
2018-03-23T14:52:17.182Z,96744.33
2018-03-23T14:54:43.685Z,96741.72
2018-03-23T14:57:09.995Z,96745.05
2018-03-23T14:59:36.365Z,96743.05
2018-03-23T15:02:02.671Z,96746.66
2018-03-23T15:04:29.049Z,96743.61
2018-03-23T15:06:55.418Z,96741.28
2018-03-23T15:09:21.752Z,96731.20
2018-03-23T15:11:47.984Z,96733.82
2018-03-23T15:14:18.141Z,96732.06
2018-03-23T15:16:44.533Z,96733.73
2018-03-23T15:19:10.867Z,96730.62
2018-03-23T15:21:37.168Z,96730.25
2018-03-23T15:24:03.648Z,96727.53
2018-03-23T15:26:31.029Z,96723.83
2018-03-23T15:28:57.368Z,96718.77
2018-03-23T15:31:23.787Z,96712.36
2018-03-23T15:33:50.101Z,96715.81
2018-03-23T15:36:16.640Z,96712.95
2018-03-23T15:38:43.112Z,96714.59
2018-03-23T15:41:09.380Z,96713.60
2018-03-23T15:43:35.822Z,96711.47
2018-03-23T15:46:02.148Z,96712.14
2018-03-23T15:48:28.405Z,96710.85
2018-03-23T15:50:54.680Z,96713.08
2018-03-23T15:53:21.280Z,96711.05
2018-03-23T15:55:47.784Z,96713.41
2018-03-23T15:58:14.559Z,96709.20
2018-03-23T16:00:40.976Z,96702.09
2018-03-23T16:03:07.307Z,96707.73
2018-03-23T16:05:33.866Z,96711.04
2018-03-23T16:08:00.179Z,96713.24
2018-03-23T16:10:26.745Z,96708.23
2018-03-23T16:12:53.035Z,96714.01
2018-03-23T16:15:19.288Z,96702.54
2018-03-23T16:17:46.009Z,96698.04
2018-03-23T16:20:12.490Z,96703.96
2018-03-23T16:22:38.797Z,96704.69
2018-03-23T16:25:05.209Z,96710.09
2018-03-23T16:27:31.569Z,96711.74
2018-03-23T16:29:58.108Z,96708.72
2018-03-23T16:32:24.621Z,96714.28
2018-03-23T16:34:51.162Z,96717.55
2018-03-23T16:37:17.615Z,96715.44
2018-03-23T16:39:43.869Z,96710.35
2018-03-23T16:42:10.263Z,96716.92
2018-03-23T16:44:36.497Z,96709.42
2018-03-23T16:47:03.304Z,96711.86
2018-03-23T16:49:30.762Z,96707.81
2018-03-23T16:51:57.060Z,96718.89
2018-03-23T16:54:23.330Z,96710.30
2018-03-23T16:56:49.668Z,96714.57
2018-03-23T16:59:15.901Z,96715.80
2018-03-23T17:01:42.148Z,96725.30
2018-03-23T17:04:08.427Z,96726.75
2018-03-23T17:06:34.672Z,96730.42
2018-03-23T17:09:00.914Z,96731.20
2018-03-23T17:11:27.208Z,96726.85
2018-03-23T17:13:53.796Z,96727.75
2018-03-23T17:16:20.139Z,96731.99
2018-03-23T17:18:46.417Z,96731.49
2018-03-23T17:21:12.722Z,96727.91
2018-03-23T17:23:38.981Z,96724.45
2018-03-23T17:26:05.253Z,96726.30
2018-03-23T17:28:31.489Z,96725.47
2018-03-23T17:30:57.773Z,96721.91
2018-03-23T17:33:24.229Z,96730.48
2018-03-23T17:35:50.489Z,96730.48
2018-03-23T17:38:16.772Z,96731.32
2018-03-23T17:40:43.046Z,96722.88
2018-03-23T17:43:09.288Z,96732.20
2018-03-23T17:45:35.583Z,96733.39
2018-03-23T17:48:01.844Z,96734.58
2018-03-23T17:50:28.088Z,96743.44
2018-03-23T17:52:54.520Z,96744.28
2018-03-23T17:55:21.546Z,96739.05
2018-03-23T17:57:47.817Z,96739.95
2018-03-23T18:00:14.049Z,96746.72
2018-03-23T18:02:40.476Z,96739.31
2018-03-23T18:05:06.774Z,96741.27
2018-03-23T18:07:33.097Z,96739.69
2018-03-23T18:09:59.601Z,96735.41
2018-03-23T18:12:25.905Z,96736.59
2018-03-23T18:14:52.137Z,96735.94
2018-03-23T18:17:18.468Z,96730.13
2018-03-23T18:19:44.749Z,96740.22
2018-03-23T18:22:11.033Z,96739.45
2018-03-23T18:24:37.356Z,96737.42
2018-03-23T18:27:03.629Z,96737.13
2018-03-23T18:29:30.344Z,96737.27
2018-03-23T18:31:56.661Z,96731.60
2018-03-23T18:34:22.929Z,96740.38
2018-03-23T18:36:49.170Z,96740.03
2018-03-23T18:39:15.436Z,96737.42
2018-03-23T18:41:41.707Z,96746.02
2018-03-23T18:44:07.945Z,96735.45
2018-03-23T18:46:35.007Z,96731.03
2018-03-23T18:49:01.296Z,96732.23
2018-03-23T18:51:27.561Z,96739.34
2018-03-23T18:53:53.897Z,96740.86
2018-03-23T18:56:20.821Z,96750.13
2018-03-23T18:58:47.146Z,96754.09
2018-03-23T19:01:13.420Z,96753.19
2018-03-23T19:03:39.718Z,96750.38
2018-03-23T19:06:05.970Z,96740.95
2018-03-23T19:08:32.294Z,96739.89
2018-03-23T19:10:58.598Z,96744.92
2018-03-23T19:13:24.857Z,96741.13
2018-03-23T19:15:51.129Z,96746.23
2018-03-23T19:18:17.477Z,96738.77
2018-03-23T19:20:43.759Z,96746.23
2018-03-23T19:23:10.041Z,96749.73
2018-03-23T19:25:36.302Z,96739.37
2018-03-23T19:28:02.597Z,96742.25
2018-03-23T19:30:28.879Z,96748.73
2018-03-23T19:32:55.224Z,96743.62
2018-03-23T19:35:21.455Z,96742.62
2018-03-23T19:37:47.757Z,96742.19
2018-03-23T19:40:14.041Z,96742.41
2018-03-23T19:42:40.300Z,96737.61
2018-03-23T19:45:06.976Z,96731.23
2018-03-23T19:47:33.265Z,96730.91
2018-03-23T19:49:59.537Z,96733.44
2018-03-23T19:52:25.808Z,96736.11
2018-03-23T19:54:52.054Z,96732.83
2018-03-23T19:57:18.353Z,96732.53
2018-03-23T19:59:44.664Z,96728.79
2018-03-23T20:02:10.976Z,96725.38
2018-03-23T20:04:37.715Z,96724.09
2018-03-23T20:07:04.223Z,96727.88
2018-03-23T20:09:30.506Z,96722.50
2018-03-23T20:11:56.779Z,96728.28
2018-03-23T20:14:23.158Z,96726.00
2018-03-23T20:16:49.392Z,96728.74
2018-03-23T20:19:15.645Z,96725.55
2018-03-23T20:21:41.958Z,96726.75
2018-03-23T20:24:14.134Z,96724.37
2018-03-23T20:26:40.599Z,96730.62
2018-03-23T20:29:06.885Z,96723.87
2018-03-23T20:31:39.030Z,96721.26
2018-03-23T20:34:05.271Z,96726.36
2018-03-23T20:36:31.571Z,96724.62
2018-03-23T20:38:57.812Z,96722.09
2018-03-23T20:41:24.108Z,96722.86
2018-03-23T20:43:50.374Z,96726.53
2018-03-23T20:46:16.664Z,96731.84
2018-03-23T20:48:42.983Z,96733.69
2018-03-23T20:51:09.292Z,96729.64
2018-03-23T20:53:35.599Z,96727.89
2018-03-23T20:56:01.858Z,96732.70
2018-03-23T20:58:28.168Z,96734.66
2018-03-23T21:00:54.476Z,96732.77
2018-03-23T21:03:21.027Z,96737.62
2018-03-23T21:05:47.340Z,96734.64
2018-03-23T21:08:13.592Z,96735.57
2018-03-23T21:10:39.845Z,96728.88
2018-03-23T21:13:06.175Z,96725.95
2018-03-23T21:15:32.413Z,96719.47
2018-03-23T21:17:58.652Z,96718.33
2018-03-23T21:20:24.925Z,96726.69
2018-03-23T21:22:51.169Z,96721.84
2018-03-23T21:25:17.457Z,96721.52
2018-03-23T21:27:43.774Z,96725.77
2018-03-23T21:30:10.261Z,96717.02
2018-03-23T21:32:36.556Z,96722.34
2018-03-23T21:35:02.855Z,96715.51
2018-03-23T21:37:29.154Z,96714.05
2018-03-23T21:39:55.421Z,96716.11
2018-03-23T21:42:21.733Z,96716.48
2018-03-23T21:44:47.964Z,96711.98
2018-03-23T21:47:14.301Z,96715.42
2018-03-23T21:49:40.581Z,96712.99
2018-03-23T21:52:06.835Z,96716.64
2018-03-23T21:54:33.066Z,96712.61
2018-03-23T21:56:59.358Z,96711.77
2018-03-23T21:59:25.628Z,96713.52
2018-03-23T22:01:51.895Z,96709.87
2018-03-23T22:04:18.177Z,96711.91
2018-03-23T22:06:44.442Z,96711.93
2018-03-23T22:09:10.685Z,96705.23
2018-03-23T22:11:36.945Z,96706.01
2018-03-23T22:14:03.197Z,96710.76
2018-03-23T22:16:29.433Z,96705.64
2018-03-23T22:18:55.701Z,96707.23
2018-03-23T22:21:21.949Z,96704.43
2018-03-23T22:23:48.206Z,96711.20
2018-03-23T22:26:14.556Z,96704.49
2018-03-23T22:28:40.838Z,96704.97
2018-03-23T22:31:07.109Z,96714.11
2018-03-23T22:33:33.385Z,96708.45
2018-03-23T22:35:59.639Z,96703.42
2018-03-23T22:38:25.877Z,96706.03
2018-03-23T22:40:52.149Z,96705.89
2018-03-23T22:43:18.433Z,96704.34
2018-03-23T22:45:44.749Z,96705.88
2018-03-23T22:48:11.041Z,96712.64
2018-03-23T22:50:37.275Z,96711.06
2018-03-23T22:53:03.549Z,96709.13
2018-03-23T22:55:29.853Z,96712.55
2018-03-23T22:57:56.189Z,96713.77
2018-03-23T23:00:22.439Z,96709.20
2018-03-23T23:02:48.757Z,96709.95
2018-03-23T23:05:15.104Z,96707.14
2018-03-23T23:07:41.391Z,96708.22
2018-03-23T23:10:07.749Z,96702.72
2018-03-23T23:12:33.993Z,96703.39
2018-03-23T23:15:00.228Z,96699.66
2018-03-23T23:17:26.571Z,96693.78
2018-03-23T23:19:52.853Z,96692.61
2018-03-23T23:22:19.093Z,96695.20
2018-03-23T23:24:45.369Z,96690.78
2018-03-23T23:27:11.904Z,96687.82
2018-03-23T23:29:38.150Z,96687.20
2018-03-23T23:32:04.864Z,96685.22
2018-03-23T23:34:31.157Z,96689.03
2018-03-23T23:36:57.388Z,96679.13
2018-03-23T23:39:23.656Z,96681.73
2018-03-23T23:41:49.923Z,96686.06
2018-03-23T23:44:16.202Z,96680.34
2018-03-23T23:46:42.476Z,96681.97
2018-03-23T23:49:08.881Z,96682.11
2018-03-23T23:51:35.117Z,96672.73
2018-03-23T23:54:01.465Z,96668.38
2018-03-23T23:56:28.516Z,96673.73
2018-03-23T23:58:54.786Z,96668.66
